createdAt,value
2019-05-15T00:00:23.466Z,4.70
2019-05-15T00:02:48.830Z,4.60
2019-05-15T00:05:14.386Z,4.60
2019-05-15T00:07:39.777Z,4.60
2019-05-15T00:10:05.511Z,4.50
2019-05-15T00:12:30.962Z,4.50
2019-05-15T00:14:58.214Z,4.50
2019-05-15T00:17:23.598Z,4.50
2019-05-15T00:19:48.985Z,4.50
2019-05-15T00:22:15.402Z,4.50
2019-05-15T00:24:40.790Z,4.40
2019-05-15T00:27:08.038Z,4.40
2019-05-15T00:29:33.118Z,4.40
2019-05-15T00:31:58.993Z,4.40
2019-05-15T00:34:24.450Z,4.40
2019-05-15T00:36:49.799Z,4.40
2019-05-15T00:39:15.159Z,4.30
2019-05-15T00:41:50.315Z,4.30
2019-05-15T00:44:09.197Z,4.30
2019-05-15T00:46:34.435Z,4.30
2019-05-15T00:48:59.779Z,4.20
2019-05-15T00:51:25.519Z,4.20
2019-05-15T00:53:50.862Z,4.20
2019-05-15T00:56:16.213Z,4.20
2019-05-15T00:58:41.566Z,4.20
2019-05-15T01:01:08.345Z,4.10
2019-05-15T01:03:33.774Z,4.10
2019-05-15T01:05:59.131Z,4.10
2019-05-15T01:08:24.467Z,4.00
2019-05-15T01:10:49.829Z,4.00
2019-05-15T01:13:15.290Z,4.00
2019-05-15T01:15:40.650Z,4.00
2019-05-15T01:18:05.990Z,4.00
2019-05-15T01:20:31.526Z,4.00
2019-05-15T01:22:59.037Z,3.90
2019-05-15T01:25:24.053Z,4.00
2019-05-15T01:27:49.422Z,3.90
2019-05-15T01:30:14.985Z,3.90
2019-05-15T01:32:40.343Z,3.90
2019-05-15T01:35:05.719Z,3.80
2019-05-15T01:37:32.050Z,3.80
2019-05-15T01:39:58.146Z,3.80
2019-05-15T01:42:23.554Z,3.70
2019-05-15T01:44:48.986Z,3.70
2019-05-15T01:47:14.382Z,3.70
2019-05-15T01:49:39.735Z,3.70
2019-05-15T01:52:05.090Z,3.70
2019-05-15T01:54:30.851Z,3.60
2019-05-15T01:56:58.564Z,3.60
2019-05-15T01:59:23.207Z,3.60
2019-05-15T02:01:48.765Z,3.60
2019-05-15T02:04:14.147Z,3.50
2019-05-15T02:06:39.491Z,3.50
2019-05-15T02:09:08.288Z,3.50
2019-05-15T02:11:34.831Z,3.50
2019-05-15T02:14:00.170Z,3.50
2019-05-15T02:16:25.546Z,3.40
2019-05-15T02:18:50.895Z,3.40
2019-05-15T02:21:18.264Z,3.40
2019-05-15T02:23:43.214Z,3.30
2019-05-15T02:26:08.636Z,3.30
2019-05-15T02:28:33.971Z,3.30
2019-05-15T02:30:59.354Z,3.20
2019-05-15T02:33:24.700Z,3.20
2019-05-15T02:35:50.514Z,3.20
2019-05-15T02:38:15.976Z,3.20
2019-05-15T02:40:41.332Z,3.10
2019-05-15T02:43:09.609Z,3.10
2019-05-15T02:45:36.669Z,3.10
2019-05-15T02:48:00.652Z,3.10
2019-05-15T02:50:28.897Z,3.00
2019-05-15T02:52:53.062Z,3.00
2019-05-15T02:55:19.674Z,3.00
2019-05-15T02:57:45.259Z,3.00
2019-05-15T03:00:11.462Z,3.00
2019-05-15T03:02:36.862Z,3.00
2019-05-15T03:05:02.242Z,2.90
2019-05-15T03:07:29.569Z,2.90
2019-05-15T03:09:54.591Z,2.90
2019-05-15T03:12:19.974Z,2.90
2019-05-15T03:14:45.310Z,2.80
2019-05-15T03:17:10.653Z,2.80
2019-05-15T03:19:39.012Z,2.70
2019-05-15T03:22:03.017Z,2.70
2019-05-15T03:24:29.032Z,2.70
2019-05-15T03:26:59.034Z,2.70
2019-05-15T03:29:23.025Z,2.60
2019-05-15T03:32:05.292Z,2.60
2019-05-15T03:34:23.262Z,2.60
2019-05-15T03:36:44.808Z,2.50
2019-05-15T03:39:09.783Z,2.50
2019-05-15T03:41:35.166Z,2.40
2019-05-15T03:44:00.513Z,2.40
2019-05-15T03:46:28.918Z,2.40
2019-05-15T03:48:52.839Z,2.40
2019-05-15T03:51:19.802Z,2.40
2019-05-15T03:53:45.184Z,2.40
2019-05-15T03:56:10.737Z,2.30
2019-05-15T03:58:39.712Z,2.30
2019-05-15T04:01:04.046Z,2.30
2019-05-15T04:03:30.262Z,2.20
2019-05-15T04:05:55.758Z,2.20
2019-05-15T04:08:21.124Z,2.20
2019-05-15T04:10:48.743Z,2.20
2019-05-15T04:13:13.466Z,2.30
2019-05-15T04:15:40.200Z,2.30
2019-05-15T04:18:08.934Z,2.30
2019-05-15T04:20:32.602Z,2.30
2019-05-15T04:23:00.482Z,2.30
2019-05-15T04:25:25.655Z,2.40
2019-05-15T04:27:51.712Z,2.40
2019-05-15T04:30:18.956Z,2.40
2019-05-15T04:32:44.268Z,2.50
2019-05-15T04:35:10.009Z,2.50
2019-05-15T04:37:35.486Z,2.50
2019-05-15T04:40:00.871Z,2.60
2019-05-15T04:42:29.650Z,2.70
2019-05-15T04:44:53.183Z,2.70
2019-05-15T04:47:19.252Z,2.80
2019-05-15T04:49:44.804Z,3.00
2019-05-15T04:52:11.186Z,3.10
2019-05-15T04:54:39.902Z,3.20
2019-05-15T04:57:03.535Z,3.30
2019-05-15T04:59:29.961Z,3.50
2019-05-15T05:02:12.944Z,3.60
2019-05-15T05:04:22.510Z,3.70
2019-05-15T05:06:49.501Z,3.90
2019-05-15T05:09:14.997Z,4.00
2019-05-15T05:11:40.619Z,4.10
2019-05-15T05:14:08.369Z,4.20
2019-05-15T05:16:32.934Z,4.30
2019-05-15T05:18:59.416Z,4.40
2019-05-15T05:21:24.845Z,4.50
2019-05-15T05:23:50.226Z,4.60
2019-05-15T05:26:15.566Z,4.70
2019-05-15T05:28:40.967Z,4.80
2019-05-15T05:31:08.438Z,4.90
2019-05-15T05:33:33.382Z,5.00
2019-05-15T05:35:58.729Z,5.10
2019-05-15T05:38:24.077Z,5.20
2019-05-15T05:40:50.145Z,5.30
2019-05-15T05:43:15.631Z,5.40
2019-05-15T05:45:40.999Z,5.60
2019-05-15T05:48:08.698Z,5.60
2019-05-15T05:50:38.628Z,5.70
2019-05-15T05:53:04.441Z,5.80
2019-05-15T05:55:29.791Z,5.90
2019-05-15T05:57:55.201Z,6.00
2019-05-15T06:00:24.311Z,6.10
2019-05-15T06:02:52.351Z,6.20
2019-05-15T06:05:18.856Z,6.40
2019-05-15T06:07:43.654Z,6.60
2019-05-15T06:10:09.820Z,6.80
2019-05-15T06:12:35.193Z,7.00
2019-05-15T06:15:00.534Z,7.20
2019-05-15T06:17:27.966Z,7.20
2019-05-15T06:19:52.890Z,7.40
2019-05-15T06:22:18.779Z,7.50
2019-05-15T06:24:44.327Z,7.70
2019-05-15T06:27:09.662Z,7.80
2019-05-15T06:29:35.049Z,7.80
2019-05-15T06:32:00.382Z,8.00
2019-05-15T06:34:25.749Z,8.10
2019-05-15T06:36:51.094Z,8.30
2019-05-15T06:39:17.881Z,8.40
2019-05-15T06:41:43.411Z,8.50
2019-05-15T06:44:09.742Z,8.60
2019-05-15T06:46:35.118Z,8.80
2019-05-15T06:49:00.479Z,8.80
2019-05-15T06:51:25.838Z,8.90
2019-05-15T06:53:51.178Z,9.00
2019-05-15T06:56:18.772Z,9.20
2019-05-15T06:58:43.625Z,9.40
2019-05-15T07:01:09.099Z,9.50
2019-05-15T07:03:34.449Z,9.70
2019-05-15T07:06:00.530Z,9.70
2019-05-15T07:08:25.888Z,10.00
2019-05-15T07:10:51.232Z,10.20
2019-05-15T07:13:18.242Z,10.50
2019-05-15T07:15:44.538Z,10.60
2019-05-15T07:18:09.919Z,10.70
2019-05-15T07:20:35.264Z,11.20
2019-05-15T07:23:00.707Z,11.60
2019-05-15T07:25:26.162Z,12.00
2019-05-15T07:27:51.543Z,12.30
2019-05-15T07:30:18.770Z,12.20
2019-05-15T07:32:45.127Z,12.40
2019-05-15T07:35:10.999Z,12.70
2019-05-15T07:37:38.708Z,12.80
2019-05-15T07:40:04.053Z,13.20
2019-05-15T07:42:29.415Z,13.40
2019-05-15T07:44:54.796Z,13.40
2019-05-15T07:47:20.222Z,13.30
2019-05-15T07:49:49.034Z,13.40
2019-05-15T07:52:12.579Z,13.60
2019-05-15T07:54:38.420Z,13.80
2019-05-15T07:57:03.821Z,13.80
2019-05-15T07:59:29.238Z,13.80
2019-05-15T08:01:54.637Z,13.90
2019-05-15T08:04:28.884Z,13.80
2019-05-15T08:06:49.069Z,14.00
2019-05-15T08:09:14.302Z,14.00
2019-05-15T08:11:39.694Z,14.00
2019-05-15T08:14:05.137Z,13.90
2019-05-15T08:16:30.488Z,13.70
2019-05-15T08:18:57.731Z,13.80
2019-05-15T08:21:22.862Z,14.00
2019-05-15T08:23:48.672Z,13.90
2019-05-15T08:26:14.021Z,14.00
2019-05-15T08:28:39.423Z,14.10
2019-05-15T08:31:06.637Z,14.00
2019-05-15T08:33:31.786Z,14.00
2019-05-15T08:35:58.855Z,13.90
2019-05-15T08:38:24.355Z,13.90
2019-05-15T08:40:49.775Z,13.70
2019-05-15T08:43:15.139Z,13.90
2019-05-15T08:45:40.548Z,13.90
2019-05-15T08:48:05.938Z,13.90
2019-05-15T08:50:31.910Z,14.10
2019-05-15T08:52:57.970Z,14.20
2019-05-15T08:55:23.307Z,14.20
2019-05-15T08:57:55.530Z,14.20
2019-05-15T09:00:18.507Z,14.10
2019-05-15T09:02:43.540Z,13.90
2019-05-15T09:05:09.650Z,14.00
2019-05-15T09:07:35.023Z,14.00
2019-05-15T09:10:00.403Z,14.10
2019-05-15T09:12:25.825Z,14.40
2019-05-15T09:14:51.315Z,14.50
2019-05-15T09:17:18.128Z,14.70
2019-05-15T09:19:44.456Z,14.70
2019-05-15T09:22:09.850Z,14.90
2019-05-15T09:24:37.891Z,14.90
2019-05-15T09:27:04.315Z,15.10
2019-05-15T09:29:31.035Z,15.50
2019-05-15T09:31:58.676Z,15.40
2019-05-15T09:34:23.851Z,15.50
2019-05-15T09:36:49.262Z,15.50
2019-05-15T09:39:14.791Z,15.40
2019-05-15T09:41:41.231Z,15.50
2019-05-15T09:44:07.981Z,15.50
2019-05-15T09:46:33.488Z,15.50
2019-05-15T09:48:59.772Z,15.60
2019-05-15T09:51:29.044Z,15.60
2019-05-15T09:53:54.286Z,15.70
2019-05-15T09:56:19.650Z,15.80
2019-05-15T09:58:45.070Z,15.90
2019-05-15T10:01:10.433Z,16.00
2019-05-15T10:03:38.821Z,16.00
2019-05-15T10:06:03.002Z,15.90
2019-05-15T10:08:29.211Z,16.00
2019-05-15T10:10:54.758Z,16.10
2019-05-15T10:13:21.102Z,16.10
2019-05-15T10:15:50.192Z,16.00
2019-05-15T10:18:13.482Z,15.90
2019-05-15T10:20:38.879Z,15.90
2019-05-15T10:23:04.257Z,15.80
2019-05-15T10:25:29.617Z,15.90
2019-05-15T10:27:54.999Z,16.00
2019-05-15T10:30:22.146Z,16.10
2019-05-15T10:32:48.681Z,16.20
2019-05-15T10:35:25.515Z,16.30
2019-05-15T10:37:41.292Z,16.20
2019-05-15T10:40:09.120Z,16.30
2019-05-15T10:42:34.563Z,16.50
2019-05-15T10:45:00.511Z,16.70
2019-05-15T10:47:28.721Z,16.90
2019-05-15T10:49:54.295Z,16.90
2019-05-15T10:52:20.644Z,16.90
2019-05-15T10:54:46.022Z,16.90
2019-05-15T10:57:11.608Z,16.80
2019-05-15T10:59:37.085Z,16.70
2019-05-15T11:02:02.469Z,16.60
2019-05-15T11:04:28.811Z,16.50
2019-05-15T11:06:54.583Z,16.40
2019-05-15T11:09:20.982Z,16.20
2019-05-15T11:11:48.687Z,16.30
2019-05-15T11:14:13.347Z,16.50
2019-05-15T11:16:39.227Z,16.40
2019-05-15T11:19:04.616Z,16.40
2019-05-15T11:21:29.996Z,16.40
2019-05-15T11:23:58.847Z,16.40
2019-05-15T11:26:22.588Z,16.10
2019-05-15T11:28:49.779Z,16.10
2019-05-15T11:31:14.993Z,16.30
2019-05-15T11:33:40.568Z,16.20
2019-05-15T11:36:06.412Z,16.10
2019-05-15T11:38:31.912Z,16.00
2019-05-15T11:40:57.275Z,16.00
2019-05-15T11:43:22.690Z,16.30
2019-05-15T11:45:48.457Z,16.30
2019-05-15T11:48:14.133Z,16.50
2019-05-15T11:50:40.151Z,16.70
2019-05-15T11:53:08.502Z,16.70
2019-05-15T11:55:32.634Z,16.80
2019-05-15T11:57:59.417Z,16.80
2019-05-15T12:00:26.996Z,16.90
2019-05-15T12:02:52.002Z,16.70
2019-05-15T12:05:18.255Z,16.80
2019-05-15T12:07:47.672Z,16.70
2019-05-15T12:10:11.642Z,16.70
2019-05-15T12:12:38.568Z,16.80
2019-05-15T12:15:05.891Z,16.80
2019-05-15T12:17:34.083Z,16.90
2019-05-15T12:20:05.370Z,17.10
2019-05-15T12:22:25.243Z,17.50
2019-05-15T12:24:50.599Z,17.60
2019-05-15T12:27:18.286Z,17.60
2019-05-15T12:29:44.006Z,17.60
2019-05-15T12:32:25.177Z,17.50
2019-05-15T12:34:38.823Z,17.40
2019-05-15T12:37:04.252Z,17.40
2019-05-15T12:39:30.617Z,17.50
2019-05-15T13:01:33.762Z,17.40
2019-05-15T13:03:59.113Z,17.50
2019-05-15T13:06:24.787Z,17.50
2019-05-15T13:08:50.133Z,17.50
2019-05-15T13:11:17.848Z,17.30
2019-05-15T13:13:42.846Z,17.40
2019-05-15T13:16:08.270Z,17.30
2019-05-15T13:18:34.001Z,17.30
2019-05-15T13:20:59.759Z,17.20
2019-05-15T13:23:25.520Z,17.20
2019-05-15T13:25:50.854Z,17.20
2019-05-15T13:28:18.374Z,17.30
2019-05-15T13:30:43.239Z,17.20
2019-05-15T13:33:10.103Z,17.10
2019-05-15T13:35:37.918Z,16.90
2019-05-15T13:38:02.666Z,16.90
2019-05-15T13:40:37.521Z,16.90
2019-05-15T13:42:55.070Z,16.70
2019-05-15T13:45:21.178Z,16.60
2019-05-15T13:47:46.530Z,16.70
2019-05-15T13:50:12.078Z,16.50
2019-05-15T13:52:39.374Z,16.30
2019-05-15T13:55:04.739Z,16.20
2019-05-15T13:57:30.107Z,16.20
2019-05-15T13:59:55.443Z,16.10
2019-05-15T14:02:20.811Z,16.00
2019-05-15T14:04:48.898Z,15.90
2019-05-15T14:07:13.151Z,15.60
2019-05-15T14:09:44.307Z,15.50
2019-05-15T14:12:11.683Z,15.30
2019-05-15T14:14:33.274Z,15.40
2019-05-15T14:16:59.228Z,15.30
2019-05-15T14:19:24.710Z,15.40
2019-05-15T14:21:50.055Z,15.40
2019-05-15T14:24:15.449Z,15.40
2019-05-15T14:26:40.802Z,15.20
2019-05-15T14:29:08.952Z,15.10
2019-05-15T14:31:36.415Z,15.00
2019-05-15T14:34:01.105Z,15.10
2019-05-15T14:36:28.676Z,15.20
2019-05-15T14:38:53.505Z,15.20
2019-05-15T14:41:19.232Z,15.30
2019-05-15T14:43:44.899Z,15.20
2019-05-15T14:46:10.250Z,15.30
2019-05-15T14:48:35.634Z,15.00
2019-05-15T14:51:00.986Z,15.10
2019-05-15T14:53:29.191Z,15.00
2019-05-15T14:55:53.319Z,15.00
2019-05-15T14:58:19.755Z,14.90
2019-05-15T15:00:49.700Z,14.90
2019-05-15T15:03:12.803Z,14.90
2019-05-15T15:05:38.765Z,15.00
2019-05-15T15:08:17.336Z,15.00
2019-05-15T15:10:31.712Z,15.00
2019-05-15T15:12:58.617Z,15.10
2019-05-15T15:15:24.114Z,15.00
2019-05-15T15:17:49.500Z,14.90
2019-05-15T15:20:15.138Z,14.70
2019-05-15T15:22:40.896Z,14.80
2019-05-15T15:25:09.204Z,14.70
2019-05-15T15:27:33.634Z,14.70
2019-05-15T15:29:58.996Z,14.80
2019-05-15T15:32:24.726Z,14.90
2019-05-15T15:34:50.144Z,14.90
2019-05-15T15:37:15.826Z,14.80
2019-05-15T15:39:41.486Z,15.00
2019-05-15T15:42:08.606Z,14.90
2019-05-15T15:44:34.131Z,14.90
2019-05-15T15:46:59.670Z,14.80
2019-05-15T15:49:27.885Z,14.80
2019-05-15T15:51:54.562Z,14.70
2019-05-15T15:54:20.191Z,14.80
2019-05-15T15:56:48.336Z,14.70
2019-05-15T15:59:12.558Z,14.60
2019-05-15T16:01:39.127Z,14.40
2019-05-15T16:04:04.841Z,14.50
2019-05-15T16:06:30.321Z,14.30
2019-05-15T16:08:55.970Z,14.20
2019-05-15T16:11:22.537Z,14.30
2019-05-15T16:13:49.674Z,14.30
2019-05-15T16:16:14.873Z,14.20
2019-05-15T16:18:41.213Z,14.10
2019-05-15T16:21:08.168Z,14.10
2019-05-15T16:23:33.920Z,14.10
2019-05-15T16:26:00.965Z,14.00
2019-05-15T16:28:28.805Z,14.10
2019-05-15T16:30:53.554Z,14.00
2019-05-15T16:33:18.969Z,14.00
2019-05-15T16:35:44.330Z,14.00
2019-05-15T16:38:09.858Z,14.00
2019-05-15T16:40:35.232Z,13.90
2019-05-15T16:43:00.578Z,13.80
2019-05-15T16:45:28.678Z,13.70
2019-05-15T16:47:53.236Z,13.60
2019-05-15T16:50:18.619Z,13.50
2019-05-15T16:52:43.965Z,13.50
2019-05-15T16:55:10.493Z,13.50
2019-05-15T16:57:38.371Z,13.40
2019-05-15T17:00:02.898Z,13.30
2019-05-15T17:02:31.710Z,13.30
2019-05-15T17:04:55.596Z,13.30
2019-05-15T17:07:21.070Z,13.30
2019-05-15T17:09:48.101Z,13.30
2019-05-15T17:12:13.563Z,13.10
2019-05-15T17:14:39.017Z,13.20
2019-05-15T17:17:07.821Z,13.10
2019-05-15T17:19:32.351Z,13.00
2019-05-15T17:21:58.767Z,12.90
2019-05-15T17:24:24.282Z,12.90
2019-05-15T17:26:49.690Z,12.90
2019-05-15T17:29:15.286Z,12.70
2019-05-15T17:31:40.738Z,12.80
2019-05-15T17:34:06.118Z,12.70
2019-05-15T17:36:32.089Z,12.50
2019-05-15T17:38:58.067Z,12.50
2019-05-15T17:41:23.505Z,12.40
2019-05-15T17:43:48.901Z,12.30
2019-05-15T17:46:14.265Z,12.20
2019-05-15T17:48:39.895Z,12.20
2019-05-15T17:51:05.258Z,12.20
2019-05-15T17:53:30.811Z,12.20
2019-05-15T17:55:58.451Z,12.20
2019-05-15T17:58:23.254Z,12.10
2019-05-15T18:00:48.763Z,12.00
2019-05-15T18:03:14.159Z,12.00
2019-05-15T18:05:39.523Z,12.00
2019-05-15T18:08:04.930Z,11.90
2019-05-15T18:10:30.278Z,11.80
2019-05-15T18:12:58.151Z,11.70
2019-05-15T18:15:22.957Z,11.70
2019-05-15T18:17:48.703Z,11.60
2019-05-15T18:20:15.298Z,11.60
2019-05-15T18:22:41.646Z,11.60
2019-05-15T18:25:09.055Z,11.60
2019-05-15T18:27:34.069Z,11.60
2019-05-15T18:29:59.555Z,11.50
2019-05-15T18:32:24.922Z,11.50
2019-05-15T18:34:50.290Z,11.40
2019-05-15T18:37:15.641Z,11.30
2019-05-15T18:39:41.194Z,11.30
2019-05-15T18:42:06.658Z,11.20
2019-05-15T18:44:32.025Z,11.10
2019-05-15T18:46:58.837Z,11.10
2019-05-15T18:49:24.232Z,11.00
2019-05-15T18:51:49.617Z,11.00
2019-05-15T18:54:14.979Z,11.00
2019-05-15T18:56:40.602Z,11.00
2019-05-15T18:59:08.092Z,11.00
2019-05-15T19:01:33.231Z,11.00
2019-05-15T19:03:58.696Z,11.00
2019-05-15T19:06:24.167Z,11.00
2019-05-15T19:08:49.545Z,11.00
2019-05-15T19:11:14.929Z,10.90
2019-05-15T19:13:40.261Z,10.90
2019-05-15T19:16:05.650Z,10.90
2019-05-15T19:18:30.986Z,10.90
2019-05-15T19:20:58.407Z,10.80
2019-05-15T19:23:23.321Z,10.80
2019-05-15T19:25:48.679Z,10.80
2019-05-15T19:28:14.037Z,10.80
2019-05-15T19:30:39.582Z,10.80
2019-05-15T19:33:04.951Z,10.80
2019-05-15T19:35:30.287Z,10.80
2019-05-15T19:37:58.233Z,10.70
2019-05-15T19:40:22.711Z,10.60
2019-05-15T19:42:48.831Z,10.60
2019-05-15T19:45:14.538Z,10.60
2019-05-15T19:47:39.881Z,10.60
2019-05-15T19:50:08.243Z,10.60
2019-05-15T19:52:32.905Z,10.60
2019-05-15T19:54:58.383Z,10.60
2019-05-15T19:57:23.721Z,10.60
2019-05-15T19:59:49.098Z,10.60
2019-05-15T20:02:17.618Z,10.60
2019-05-15T20:04:42.493Z,10.60
2019-05-15T20:07:08.093Z,10.60
2019-05-15T20:09:33.574Z,10.60
2019-05-15T20:11:59.206Z,10.60
2019-05-15T20:14:24.618Z,10.60
2019-05-15T20:16:50.062Z,10.50
2019-05-15T20:19:17.760Z,10.50
2019-05-15T20:21:42.657Z,10.50
2019-05-15T20:24:09.068Z,10.60
2019-05-15T20:26:34.514Z,10.50
2019-05-15T20:28:59.926Z,10.50
2019-05-15T20:31:28.263Z,10.50
2019-05-15T20:34:03.269Z,10.50
2019-05-15T20:36:19.711Z,10.50
2019-05-15T20:38:45.146Z,10.50
2019-05-15T20:41:10.634Z,10.50
2019-05-15T20:43:38.304Z,10.40
2019-05-15T20:46:03.312Z,10.40
2019-05-15T20:48:29.071Z,10.50
2019-05-15T20:50:54.464Z,10.50
2019-05-15T20:53:19.898Z,10.40
2019-05-15T20:55:45.367Z,10.40
2019-05-15T20:58:10.841Z,10.40
2019-05-15T21:00:40.732Z,10.50
2019-05-15T21:03:03.230Z,10.50
2019-05-15T21:05:28.644Z,10.50
2019-05-15T21:07:54.280Z,10.40
2019-05-15T21:10:21.532Z,10.50
2019-05-15T21:12:48.563Z,10.40
2019-05-15T21:15:14.849Z,10.40
2019-05-15T21:17:41.906Z,10.40
2019-05-15T21:20:09.445Z,10.40
2019-05-15T21:22:34.291Z,10.40
2019-05-15T21:24:59.946Z,10.40
2019-05-15T21:27:32.008Z,10.40
2019-05-15T21:29:53.498Z,10.40
2019-05-15T21:32:19.636Z,10.40
2019-05-15T21:34:45.374Z,10.40
2019-05-15T21:37:10.798Z,10.40
2019-05-15T21:39:36.166Z,10.40
2019-05-15T21:42:01.861Z,10.30
2019-05-15T21:44:29.230Z,10.40
2019-05-15T21:46:54.625Z,10.40
2019-05-15T21:49:19.966Z,10.40
2019-05-15T21:51:47.528Z,10.40
2019-05-15T21:54:12.410Z,10.40
2019-05-15T21:56:38.585Z,10.40
2019-05-15T21:59:04.420Z,10.30
2019-05-15T22:01:29.755Z,10.30
2019-05-15T22:03:55.205Z,10.30
2019-05-15T22:06:20.547Z,10.30
2019-05-15T22:08:45.986Z,10.40
2019-05-15T22:11:11.343Z,10.40
2019-05-15T22:13:39.047Z,10.30
2019-05-15T22:16:03.693Z,10.30
2019-05-15T22:18:29.051Z,10.40
2019-05-15T22:20:54.430Z,10.30
2019-05-15T22:23:19.986Z,10.40
2019-05-15T22:25:48.023Z,10.30
2019-05-15T22:28:12.318Z,10.30
2019-05-15T22:30:38.950Z,10.30
2019-05-15T22:33:04.536Z,10.30
2019-05-15T22:35:30.023Z,10.30
2019-05-15T22:37:55.374Z,10.20
2019-05-15T22:40:20.735Z,10.30
2019-05-15T22:42:48.346Z,10.30
2019-05-15T22:45:13.595Z,10.30
2019-05-15T22:47:39.274Z,10.20
2019-05-15T22:50:04.978Z,10.20
2019-05-15T22:52:30.344Z,10.30
2019-05-15T22:54:55.705Z,10.30
2019-05-15T22:57:21.098Z,10.30
2019-05-15T22:59:48.647Z,10.20
2019-05-15T23:02:13.431Z,10.20
2019-05-15T23:04:38.778Z,10.20
2019-05-15T23:07:04.125Z,10.20
2019-05-15T23:09:29.503Z,10.20
2019-05-15T23:11:54.844Z,10.20
2019-05-15T23:14:20.433Z,10.20
2019-05-15T23:16:48.147Z,10.20
2019-05-15T23:19:12.758Z,10.10
2019-05-15T23:21:40.276Z,10.10
2019-05-15T23:24:05.104Z,10.10
2019-05-15T23:26:30.462Z,10.00
2019-05-15T23:28:55.817Z,10.00
2019-05-15T23:31:21.184Z,9.90
2019-05-15T23:33:48.139Z,9.90
2019-05-15T23:36:13.690Z,9.80
2019-05-15T23:38:39.030Z,9.80
2019-05-15T23:41:04.422Z,9.80
2019-05-15T23:43:29.791Z,9.80
2019-05-15T23:45:55.230Z,9.80
2019-05-15T23:48:20.570Z,9.80
2019-05-15T23:50:48.483Z,9.80
2019-05-15T23:53:12.982Z,9.80
2019-05-15T23:55:38.354Z,9.80
2019-05-15T23:58:03.709Z,9.70
